Time;durP1;ratioP1;P1;durP2;ratioP2;P2;SDS_P1;SDS_P2;PMS_P1;PMS_P2;Temp;Humidity;BMP_temperature;BMP_pressure;BME280_temperature;BME280_humidity;BME280_pressure;Samples;Min_cycle;Max_cycle;Signal;HPM_P1;HPM_P2
2023/05/10 00:00:51;;;;;;;;;;;12.40;99.90;;;;;;5010241;28;19921;-82
2023/05/10 00:03:16;;;;;;;;;;;12.40;99.90;;;;;;4987969;28;19921;-82
2023/05/10 00:05:42;;;;;;;;;;;12.30;99.90;;;;;;4977106;28;19929;-81
2023/05/10 00:08:08;;;;;;;;;;;12.30;99.90;;;;;;4983304;28;20325;-82
2023/05/10 00:10:33;;;;;;;;;;;12.30;99.90;;;;;;5010655;28;20311;-81
2023/05/10 00:12:59;;;;;;;;;;;12.20;99.90;;;;;;4993588;28;19971;-81
2023/05/10 00:15:24;;;;;;;;;;;12.30;99.90;;;;;;4971517;28;19921;-83
2023/05/10 00:17:50;;;;;;;;;;;12.30;99.90;;;;;;4977877;28;19921;-82
2023/05/10 00:20:16;;;;;;;;;;;12.30;99.90;;;;;;4977295;28;19928;-81
2023/05/10 00:22:41;;;;;;;;;;;12.30;99.90;;;;;;4991843;28;19994;-82
2023/05/10 00:25:07;;;;;;;;;;;12.30;99.90;;;;;;4992072;28;20412;-82
2023/05/10 00:27:33;;;;;;;;;;;12.40;99.90;;;;;;4974554;28;19936;-81
2023/05/10 00:29:58;;;;;;;;;;;12.40;99.90;;;;;;4989005;28;19921;-81
2023/05/10 00:32:24;;;;;;;;;;;12.30;99.90;;;;;;4962298;28;19968;-81
2023/05/10 00:34:50;;;;;;;;;;;12.40;99.90;;;;;;4976084;28;20306;-81
2023/05/10 00:37:16;;;;;;;;;;;12.30;99.90;;;;;;4986846;28;20240;-82
2023/05/10 00:39:41;;;;;;;;;;;12.30;99.90;;;;;;4973524;28;20405;-81
2023/05/10 00:42:07;;;;;;;;;;;12.30;99.90;;;;;;4978555;28;19948;-82
2023/05/10 00:44:32;;;;;;;;;;;12.30;99.90;;;;;;4986629;28;19928;-83
2023/05/10 00:46:59;;;;;;;;;;;12.30;99.90;;;;;;4992356;28;20350;-81
2023/05/10 00:49:25;;;;;;;;;;;12.40;99.90;;;;;;4973693;28;19929;-81
2023/05/10 00:51:50;;;;;;;;;;;12.40;99.90;;;;;;4975182;28;19921;-82
2023/05/10 00:54:16;;;;;;;;;;;12.40;99.90;;;;;;4970308;28;20008;-82
2023/05/10 00:56:43;;;;;;;;;;;12.40;99.90;;;;;;4987763;28;19940;-81
2023/05/10 00:59:08;;;;;;;;;;;12.40;99.90;;;;;;4992248;28;19937;-81
2023/05/10 01:01:35;;;;;;;;;;;12.40;99.90;;;;;;4990269;28;19917;-83
2023/05/10 01:04:01;;;;;;;;;;;12.40;99.90;;;;;;4991901;28;20381;-81
2023/05/10 01:06:27;;;;;;;;;;;12.40;99.90;;;;;;4990907;28;20374;-81
2023/05/10 01:08:53;;;;;;;;;;;12.40;99.90;;;;;;4970489;28;19921;-81
2023/05/10 01:11:18;;;;;;;;;;;12.40;99.90;;;;;;4990878;28;20024;-82
2023/05/10 01:13:47;;;;;;;;;;;12.40;99.90;;;;;;4996586;28;19972;-81
2023/05/10 01:16:13;;;;;;;;;;;12.40;99.90;;;;;;4972768;28;19960;-81
2023/05/10 01:18:40;;;;;;;;;;;12.40;99.90;;;;;;4984795;28;20004;-81
2023/05/10 01:21:24;;;;;;;;;;;12.40;99.90;;;;;;5010005;28;19996;-80
2023/05/10 01:23:53;;;;;;;;;;;12.40;99.90;;;;;;4990597;28;20297;-82
2023/05/10 01:26:39;;;;;;;;;;;12.30;99.90;;;;;;4990457;28;19924;-81
2023/05/10 01:29:08;;;;;;;;;;;12.40;99.90;;;;;;4988196;28;19923;-81
2023/05/10 01:31:42;;;;;;;;;;;12.40;99.90;;;;;;4991828;28;20478;-82
2023/05/10 01:34:17;;;;;;;;;;;12.30;99.90;;;;;;4983421;28;20455;-80
2023/05/10 01:36:47;;;;;;;;;;;12.30;99.90;;;;;;5009097;28;19932;-81
2023/05/10 01:39:31;;;;;;;;;;;12.40;99.90;;;;;;5009658;28;19925;-80
2023/05/10 01:42:06;;;;;;;;;;;12.30;99.90;;;;;;4992092;28;19929;-81
2023/05/10 01:44:40;;;;;;;;;;;12.30;99.90;;;;;;5008524;28;19917;-81
2023/05/10 01:47:07;;;;;;;;;;;12.30;99.90;;;;;;4964990;28;19941;-81
2023/05/10 01:49:36;;;;;;;;;;;12.40;99.90;;;;;;4987766;28;20029;-81
2023/05/10 01:52:12;;;;;;;;;;;12.30;99.90;;;;;;5010323;28;20282;-81
2023/05/10 01:54:48;;;;;;;;;;;12.30;99.90;;;;;;5009942;28;20043;-82
2023/05/10 01:57:16;;;;;;;;;;;12.30;99.90;;;;;;5000503;28;19925;-81
2023/05/10 01:59:43;;;;;;;;;;;12.40;99.90;;;;;;4967621;28;20406;-83
2023/05/10 02:02:11;;;;;;;;;;;12.30;99.90;;;;;;4973102;28;19929;-81
2023/05/10 02:04:38;;;;;;;;;;;12.20;99.90;;;;;;4972394;28;19921;-81
2023/05/10 02:07:04;;;;;;;;;;;12.20;99.90;;;;;;4990568;28;19968;-81
2023/05/10 02:09:31;;;;;;;;;;;12.20;99.90;;;;;;4990921;28;19921;-83
2023/05/10 02:11:59;;;;;;;;;;;12.20;99.90;;;;;;4974246;28;19921;-81
2023/05/10 02:14:26;;;;;;;;;;;12.20;99.90;;;;;;4992226;28;20297;-81
2023/05/10 02:16:53;;;;;;;;;;;12.30;99.90;;;;;;4972384;28;19963;-81
2023/05/10 02:19:19;;;;;;;;;;;12.30;99.90;;;;;;4987152;28;19973;-81
2023/05/10 02:21:45;;;;;;;;;;;12.20;99.90;;;;;;4977923;28;19925;-81
2023/05/10 02:24:11;;;;;;;;;;;12.30;99.90;;;;;;4995227;28;19921;-81
2023/05/10 02:26:37;;;;;;;;;;;12.30;99.90;;;;;;4994897;28;20338;-80
2023/05/10 02:29:04;;;;;;;;;;;12.20;99.90;;;;;;5012017;28;19925;-81
2023/05/10 02:31:33;;;;;;;;;;;12.20;99.90;;;;;;4994381;28;19917;-81
2023/05/10 02:33:59;;;;;;;;;;;12.30;99.90;;;;;;4993259;28;19924;-80
2023/05/10 02:36:27;;;;;;;;;;;12.30;99.90;;;;;;4995892;28;19918;-80
2023/05/10 02:38:53;;;;;;;;;;;12.20;99.90;;;;;;4991435;28;19948;-80
2023/05/10 02:41:19;;;;;;;;;;;12.20;99.90;;;;;;5004004;28;19921;-80
2023/05/10 02:43:45;;;;;;;;;;;12.20;99.90;;;;;;4995916;28;19925;-80
2023/05/10 02:46:11;;;;;;;;;;;12.20;99.90;;;;;;4992979;28;19928;-81
2023/05/10 02:48:36;;;;;;;;;;;12.20;99.90;;;;;;5010880;28;19921;-82
2023/05/10 02:51:04;;;;;;;;;;;12.30;99.90;;;;;;4993052;28;19971;-81
2023/05/10 02:53:31;;;;;;;;;;;12.30;99.90;;;;;;4994833;28;19917;-80
2023/05/10 02:55:59;;;;;;;;;;;12.30;99.90;;;;;;4990023;28;20355;-80
2023/05/10 02:58:25;;;;;;;;;;;12.30;99.90;;;;;;4994435;28;19917;-79
2023/05/10 03:00:50;;;;;;;;;;;12.20;99.90;;;;;;5008884;28;20281;-83
2023/05/10 03:03:16;;;;;;;;;;;12.20;99.90;;;;;;5007326;28;19917;-80
2023/05/10 03:05:41;;;;;;;;;;;12.20;99.90;;;;;;5009442;28;20373;-80
2023/05/10 03:08:07;;;;;;;;;;;12.20;99.90;;;;;;4990138;28;19924;-80
2023/05/10 03:10:36;;;;;;;;;;;12.20;99.90;;;;;;4995617;28;19924;-80
2023/05/10 03:13:15;;;;;;;;;;;12.20;99.90;;;;;;5008328;28;19924;-80
2023/05/10 03:15:53;;;;;;;;;;;12.20;99.90;;;;;;4994519;28;20463;-80
2023/05/10 03:18:22;;;;;;;;;;;12.20;99.90;;;;;;4989704;28;19917;-80
2023/05/10 03:20:49;;;;;;;;;;;12.20;99.90;;;;;;4993694;28;19948;-81
2023/05/10 03:23:18;;;;;;;;;;;12.20;99.90;;;;;;4992513;28;19917;-82
2023/05/10 03:25:45;;;;;;;;;;;12.20;99.90;;;;;;4988792;28;19924;-80
2023/05/10 03:28:11;;;;;;;;;;;12.20;99.90;;;;;;4993245;28;20358;-81
2023/05/10 03:30:37;;;;;;;;;;;12.20;99.90;;;;;;4993591;28;19918;-81
2023/05/10 03:33:08;;;;;;;;;;;12.20;99.90;;;;;;4992834;28;20028;-81
2023/05/10 03:35:34;;;;;;;;;;;12.20;99.90;;;;;;4983443;28;19944;-81
2023/05/10 03:38:00;;;;;;;;;;;12.10;99.90;;;;;;5010092;28;19917;-81
2023/05/10 03:40:26;;;;;;;;;;;12.10;99.90;;;;;;4988410;28;19925;-81
2023/05/10 03:42:51;;;;;;;;;;;12.10;99.90;;;;;;4991391;28;19964;-81
2023/05/10 03:45:17;;;;;;;;;;;12.10;99.90;;;;;;4961351;28;19956;-81
2023/05/10 03:47:42;;;;;;;;;;;12.10;99.90;;;;;;4994109;28;19917;-81
2023/05/10 03:50:08;;;;;;;;;;;12.20;99.90;;;;;;4988992;28;19946;-83
2023/05/10 03:52:34;;;;;;;;;;;12.10;99.90;;;;;;4991339;28;19924;-81
2023/05/10 03:54:59;;;;;;;;;;;12.10;99.90;;;;;;4994756;28;19941;-83
2023/05/10 03:57:25;;;;;;;;;;;12.20;99.90;;;;;;4975044;28;19921;-82
2023/05/10 03:59:50;;;;;;;;;;;12.10;99.90;;;;;;4975313;28;20355;-81
2023/05/10 04:02:16;;;;;;;;;;;12.00;99.90;;;;;;4974619;28;19925;-81
2023/05/10 04:04:42;;;;;;;;;;;12.00;99.90;;;;;;4994039;28;19947;-82
2023/05/10 04:07:07;;;;;;;;;;;12.00;99.90;;;;;;4994062;28;19918;-82
2023/05/10 04:09:33;;;;;;;;;;;12.00;99.90;;;;;;4991070;28;19917;-81
2023/05/10 04:11:59;;;;;;;;;;;12.00;99.90;;;;;;4993481;28;19921;-81
2023/05/10 04:14:24;;;;;;;;;;;12.00;99.90;;;;;;4976942;28;19961;-80
2023/05/10 04:16:50;;;;;;;;;;;12.00;99.90;;;;;;4991518;28;20022;-81
2023/05/10 04:19:16;;;;;;;;;;;12.00;99.90;;;;;;4993471;28;19928;-80
2023/05/10 04:21:41;;;;;;;;;;;12.00;99.90;;;;;;4970770;28;19928;-81
2023/05/10 04:24:07;;;;;;;;;;;12.00;99.90;;;;;;4999840;28;20393;-82
2023/05/10 04:26:32;;;;;;;;;;;12.00;99.90;;;;;;4970437;28;19929;-82
2023/05/10 04:28:58;;;;;;;;;;;12.00;99.90;;;;;;5009622;28;20377;-81
2023/05/10 04:31:23;;;;;;;;;;;12.00;99.90;;;;;;4992211;28;20511;-81
2023/05/10 04:33:49;;;;;;;;;;;12.00;99.90;;;;;;4993305;28;19928;-81
2023/05/10 04:36:15;;;;;;;;;;;12.00;99.90;;;;;;4992643;28;20832;-80
2023/05/10 04:38:41;;;;;;;;;;;12.00;99.90;;;;;;4978125;28;19932;-81
2023/05/10 04:41:07;;;;;;;;;;;12.00;99.90;;;;;;4994134;28;19929;-82
2023/05/10 04:43:33;;;;;;;;;;;12.00;99.90;;;;;;4969815;28;19996;-82
2023/05/10 04:45:58;;;;;;;;;;;12.00;99.90;;;;;;4992300;28;19921;-81
2023/05/10 04:48:24;;;;;;;;;;;12.00;99.90;;;;;;4990617;28;20310;-80
2023/05/10 04:50:49;;;;;;;;;;;12.00;99.90;;;;;;4972843;28;19980;-80
2023/05/10 04:53:15;;;;;;;;;;;12.00;99.90;;;;;;4990679;28;19917;-80
2023/05/10 04:55:40;;;;;;;;;;;12.10;99.90;;;;;;5009203;28;19984;-80
2023/05/10 04:58:07;;;;;;;;;;;12.00;99.90;;;;;;4975611;28;19965;-81
2023/05/10 05:00:33;;;;;;;;;;;12.00;99.90;;;;;;4992662;28;19921;-80
2023/05/10 05:02:58;;;;;;;;;;;12.00;99.90;;;;;;4985738;28;19917;-81
2023/05/10 05:05:24;;;;;;;;;;;12.10;99.90;;;;;;4958936;28;19917;-81
2023/05/10 05:07:50;;;;;;;;;;;12.10;99.90;;;;;;5002325;28;19917;-81
2023/05/10 05:10:15;;;;;;;;;;;12.10;99.90;;;;;;4991744;28;19922;-81
2023/05/10 05:12:41;;;;;;;;;;;12.10;99.90;;;;;;4987593;28;19922;-81
2023/05/10 05:15:08;;;;;;;;;;;12.10;99.90;;;;;;4985897;28;19922;-81
2023/05/10 05:17:34;;;;;;;;;;;12.10;99.90;;;;;;4991470;28;20011;-80
2023/05/10 05:20:00;;;;;;;;;;;12.10;99.90;;;;;;4996872;28;19987;-80
2023/05/10 05:22:27;;;;;;;;;;;12.10;99.90;;;;;;4975982;28;19928;-79
2023/05/10 05:24:54;;;;;;;;;;;12.20;99.90;;;;;;4992619;28;19994;-81
2023/05/10 05:27:22;;;;;;;;;;;12.20;99.90;;;;;;4989963;28;20469;-79
2023/05/10 05:29:47;;;;;;;;;;;12.10;99.90;;;;;;4993412;28;20385;-80
2023/05/10 05:32:13;;;;;;;;;;;12.10;99.90;;;;;;4990648;28;19925;-82
2023/05/10 05:34:39;;;;;;;;;;;12.10;99.90;;;;;;5010470;28;19921;-78
2023/05/10 05:37:04;;;;;;;;;;;12.10;99.90;;;;;;4990768;28;20359;-82
2023/05/10 05:39:30;;;;;;;;;;;12.20;99.90;;;;;;4988075;28;19921;-80
2023/05/10 05:41:55;;;;;;;;;;;12.20;99.90;;;;;;5001225;28;20302;-78
2023/05/10 05:44:21;;;;;;;;;;;12.10;99.90;;;;;;4972990;28;19932;-80
2023/05/10 05:46:46;;;;;;;;;;;12.10;99.90;;;;;;5010265;28;19921;-79
2023/05/10 05:49:12;;;;;;;;;;;12.10;99.90;;;;;;4975041;28;20278;-83
2023/05/10 05:51:37;;;;;;;;;;;12.10;99.90;;;;;;4992364;28;19921;-81
2023/05/10 05:54:04;;;;;;;;;;;12.20;99.90;;;;;;4990820;28;19956;-80
2023/05/10 05:56:30;;;;;;;;;;;12.20;99.90;;;;;;5001448;28;19929;-78
2023/05/10 05:58:55;;;;;;;;;;;12.10;99.90;;;;;;4994663;28;20428;-82
2023/05/10 06:01:21;;;;;;;;;;;12.10;99.90;;;;;;4974915;28;20351;-78
2023/05/10 06:03:46;;;;;;;;;;;12.20;99.90;;;;;;4996077;28;20319;-78
2023/05/10 06:06:12;;;;;;;;;;;12.20;99.90;;;;;;5014462;28;19944;-79
2023/05/10 06:08:38;;;;;;;;;;;12.20;99.90;;;;;;4995328;28;20705;-82
2023/05/10 06:11:04;;;;;;;;;;;12.20;99.90;;;;;;5008393;28;19939;-79
2023/05/10 06:13:31;;;;;;;;;;;12.20;99.90;;;;;;5000295;28;19928;-79
2023/05/10 06:16:01;;;;;;;;;;;12.20;99.90;;;;;;4992456;28;19943;-80
2023/05/10 06:18:27;;;;;;;;;;;12.20;99.90;;;;;;5010395;28;19921;-79
2023/05/10 06:20:53;;;;;;;;;;;12.20;99.90;;;;;;4998314;28;19967;-79
2023/05/10 06:23:18;;;;;;;;;;;12.20;99.90;;;;;;4999426;28;19926;-79
2023/05/10 06:25:44;;;;;;;;;;;12.20;99.90;;;;;;5018719;28;19929;-79
2023/05/10 06:28:09;;;;;;;;;;;12.20;99.90;;;;;;4987319;28;19925;-79
2023/05/10 06:30:36;;;;;;;;;;;12.20;99.90;;;;;;5010550;28;19929;-82
2023/05/10 06:33:01;;;;;;;;;;;12.30;99.90;;;;;;5009026;28;19921;-80
2023/05/10 06:35:27;;;;;;;;;;;12.20;99.90;;;;;;5002878;28;19945;-80
2023/05/10 06:37:53;;;;;;;;;;;12.20;99.90;;;;;;4993508;28;19917;-79
2023/05/10 06:40:19;;;;;;;;;;;12.30;99.90;;;;;;5004039;28;20336;-79
2023/05/10 06:42:45;;;;;;;;;;;12.30;99.90;;;;;;5010149;28;20446;-79
2023/05/10 06:45:11;;;;;;;;;;;12.30;99.90;;;;;;4973983;28;19933;-79
2023/05/10 06:47:36;;;;;;;;;;;12.30;99.90;;;;;;4963141;28;19999;-78
2023/05/10 06:50:03;;;;;;;;;;;12.30;99.90;;;;;;5007923;28;19929;-82
2023/05/10 06:52:28;;;;;;;;;;;12.30;99.90;;;;;;5005882;28;20370;-76
2023/05/10 06:54:54;;;;;;;;;;;12.30;99.90;;;;;;5009041;28;20005;-77
2023/05/10 06:57:22;;;;;;;;;;;12.30;99.90;;;;;;4990758;28;19987;-76
2023/05/10 06:59:48;;;;;;;;;;;12.30;99.90;;;;;;4972977;28;19928;-81
2023/05/10 07:02:14;;;;;;;;;;;12.40;99.90;;;;;;4993779;28;20297;-78
2023/05/10 07:04:40;;;;;;;;;;;12.40;99.90;;;;;;4976664;28;19925;-77
2023/05/10 07:07:05;;;;;;;;;;;12.50;99.90;;;;;;4993844;28;19928;-78
2023/05/10 07:09:31;;;;;;;;;;;12.40;99.90;;;;;;4984226;28;19929;-79
2023/05/10 07:11:57;;;;;;;;;;;12.50;99.90;;;;;;4992691;28;20436;-77
2023/05/10 07:14:23;;;;;;;;;;;12.50;99.90;;;;;;4991942;28;19943;-77
2023/05/10 07:16:49;;;;;;;;;;;12.50;99.90;;;;;;5001651;28;20481;-77
2023/05/10 07:19:14;;;;;;;;;;;12.50;99.90;;;;;;5011723;28;20019;-77
2023/05/10 07:21:42;;;;;;;;;;;12.50;99.90;;;;;;5009931;28;20019;-78
2023/05/10 07:24:07;;;;;;;;;;;12.50;99.90;;;;;;5010364;28;19922;-80
2023/05/10 07:26:33;;;;;;;;;;;12.50;99.90;;;;;;4993109;28;20374;-78
2023/05/10 07:28:59;;;;;;;;;;;12.60;99.90;;;;;;5005548;28;19933;-78
2023/05/10 07:31:24;;;;;;;;;;;12.60;99.90;;;;;;4992061;28;20362;-78
2023/05/10 07:33:50;;;;;;;;;;;12.60;99.90;;;;;;4988182;28;19929;-78
2023/05/10 07:36:15;;;;;;;;;;;12.60;99.90;;;;;;4990076;28;20278;-77
2023/05/10 07:38:41;;;;;;;;;;;12.80;99.90;;;;;;5016513;28;19944;-78
2023/05/10 07:41:06;;;;;;;;;;;12.80;99.90;;;;;;5011754;28;19992;-76
2023/05/10 07:43:32;;;;;;;;;;;12.80;99.90;;;;;;4992927;28;19921;-78
2023/05/10 07:45:59;;;;;;;;;;;12.90;99.90;;;;;;4993560;28;19917;-78
2023/05/10 07:48:25;;;;;;;;;;;12.90;99.90;;;;;;4993956;28;19923;-80
2023/05/10 07:50:51;;;;;;;;;;;12.80;99.90;;;;;;4989040;28;19917;-78
2023/05/10 07:53:17;;;;;;;;;;;12.80;99.90;;;;;;5003766;28;19932;-78
2023/05/10 07:55:42;;;;;;;;;;;12.90;99.90;;;;;;4990390;28;19925;-77
2023/05/10 07:58:08;;;;;;;;;;;13.00;99.90;;;;;;5008406;28;19975;-76
2023/05/10 08:00:33;;;;;;;;;;;13.10;99.90;;;;;;4997216;28;19995;-79
2023/05/10 08:02:59;;;;;;;;;;;13.20;99.90;;;;;;4994329;28;19922;-78
2023/05/10 08:05:25;;;;;;;;;;;13.20;99.90;;;;;;4994403;28;19925;-79
2023/05/10 08:07:50;;;;;;;;;;;13.10;99.90;;;;;;4993295;28;19953;-78
2023/05/10 08:10:16;;;;;;;;;;;13.10;99.90;;;;;;4993715;28;19921;-78
2023/05/10 08:12:42;;;;;;;;;;;13.10;99.90;;;;;;4994484;28;20012;-78
2023/05/10 08:15:08;;;;;;;;;;;13.00;99.90;;;;;;4989997;28;19976;-78
2023/05/10 08:17:33;;;;;;;;;;;13.10;99.90;;;;;;4974832;28;19918;-85
2023/05/10 08:19:59;;;;;;;;;;;13.30;99.90;;;;;;4989662;28;19929;-78
2023/05/10 08:22:24;;;;;;;;;;;13.40;99.90;;;;;;5003949;28;19917;-79
2023/05/10 08:24:50;;;;;;;;;;;13.40;99.90;;;;;;4994031;28;19921;-78
2023/05/10 08:27:15;;;;;;;;;;;13.30;99.90;;;;;;4994666;28;19968;-79
2023/05/10 08:29:41;;;;;;;;;;;13.30;99.90;;;;;;5010779;28;19929;-78
2023/05/10 08:32:07;;;;;;;;;;;13.20;99.90;;;;;;4993893;28;19921;-78
2023/05/10 08:34:32;;;;;;;;;;;13.20;99.90;;;;;;4981807;28;19926;-82
2023/05/10 08:36:58;;;;;;;;;;;13.20;99.90;;;;;;4998452;28;20392;-79
2023/05/10 08:39:33;;;;;;;;;;;13.10;99.90;;;;;;5116446;27;1976815;-84
2023/05/10 08:42:01;;;;;;;;;;;13.20;99.90;;;;;;5161704;27;19923;-78
2023/05/10 08:44:26;;;;;;;;;;;13.10;99.90;;;;;;5148186;27;20359;-78
2023/05/10 08:46:53;;;;;;;;;;;13.00;99.90;;;;;;5177469;27;19942;-80
2023/05/10 08:49:19;;;;;;;;;;;13.00;99.90;;;;;;5160667;27;19968;-79
2023/05/10 08:51:49;;;;;;;;;;;13.00;99.90;;;;;;5165150;27;19927;-79
2023/05/10 08:54:15;;;;;;;;;;;12.90;99.90;;;;;;5169153;27;20013;-79
2023/05/10 08:56:41;;;;;;;;;;;12.80;99.90;;;;;;5184249;27;20013;-79
2023/05/10 08:59:06;;;;;;;;;;;12.80;99.90;;;;;;5189930;27;20014;-79
2023/05/10 09:01:33;;;;;;;;;;;12.80;99.90;;;;;;5164726;27;19927;-80
2023/05/10 09:03:59;;;;;;;;;;;12.80;99.90;;;;;;5168334;27;20164;-79
2023/05/10 09:06:24;;;;;;;;;;;12.80;99.90;;;;;;5156990;27;19923;-79
2023/05/10 09:08:51;;;;;;;;;;;13.00;99.90;;;;;;5184202;27;19923;-79
2023/05/10 09:11:17;;;;;;;;;;;13.30;99.90;;;;;;5184997;27;19930;-80
2023/05/10 09:13:43;;;;;;;;;;;13.50;99.90;;;;;;5189363;27;19930;-84
2023/05/10 09:16:09;;;;;;;;;;;13.50;99.90;;;;;;5161203;27;20652;-81
2023/05/10 09:18:34;;;;;;;;;;;13.60;99.90;;;;;;5164248;27;19923;-76
2023/05/10 09:21:00;;;;;;;;;;;13.60;99.90;;;;;;5155881;27;19979;-80
2023/05/10 09:23:31;;;;;;;;;;;13.50;99.90;;;;;;5162115;27;20355;-81
2023/05/10 09:26:07;;;;;;;;;;;13.40;99.90;;;;;;5157072;27;20374;-82
2023/05/10 09:28:52;;;;;;;;;;;13.30;99.90;;;;;;5160579;27;20134;-82
2023/05/10 09:31:18;;;;;;;;;;;13.20;99.90;;;;;;5142358;27;19923;-80
2023/05/10 09:33:45;;;;;;;;;;;13.20;99.90;;;;;;5137323;27;19927;-84
2023/05/10 09:36:11;;;;;;;;;;;13.10;99.90;;;;;;5159852;27;19926;-80
2023/05/10 09:38:46;;;;;;;;;;;13.20;99.90;;;;;;5164038;27;20379;-80
2023/05/10 09:41:17;;;;;;;;;;;13.30;99.90;;;;;;5160856;27;19930;-81
2023/05/10 09:43:42;;;;;;;;;;;13.40;99.90;;;;;;5137669;27;19938;-79
2023/05/10 09:46:08;;;;;;;;;;;13.40;99.90;;;;;;5169953;27;19927;-79
2023/05/10 09:48:34;;;;;;;;;;;13.60;99.90;;;;;;5171958;27;19922;-78
2023/05/10 09:51:00;;;;;;;;;;;13.70;99.90;;;;;;5129256;27;20302;-78
2023/05/10 09:53:26;;;;;;;;;;;13.60;99.90;;;;;;5151755;27;20438;-80
2023/05/10 09:55:51;;;;;;;;;;;13.60;99.90;;;;;;5150731;27;20010;-80
2023/05/10 09:58:17;;;;;;;;;;;13.60;99.90;;;;;;5146761;27;20401;-79
2023/05/10 10:00:43;;;;;;;;;;;13.70;99.90;;;;;;5131809;27;20264;-80
2023/05/10 10:03:21;;;;;;;;;;;14.00;99.90;;;;;;5171008;27;20017;-80
2023/05/10 10:05:47;;;;;;;;;;;14.60;99.90;;;;;;5143686;27;19926;-84
2023/05/10 10:08:13;;;;;;;;;;;14.90;99.90;;;;;;5154453;27;19931;-81
2023/05/10 10:10:44;;;;;;;;;;;14.80;99.90;;;;;;5156637;27;19927;-80
2023/05/10 10:13:09;;;;;;;;;;;14.50;99.90;;;;;;5128102;27;19923;-80
2023/05/10 10:15:35;;;;;;;;;;;14.20;99.90;;;;;;5133431;27;20003;-80
2023/05/10 10:18:01;;;;;;;;;;;14.00;99.90;;;;;;5173974;27;19978;-81
2023/05/10 10:20:27;;;;;;;;;;;14.00;99.90;;;;;;5120010;27;19972;-81
2023/05/10 10:22:52;;;;;;;;;;;13.90;99.90;;;;;;5135043;27;19974;-81
2023/05/10 10:25:18;;;;;;;;;;;13.90;99.90;;;;;;5137841;27;19922;-81
2023/05/10 10:27:47;;;;;;;;;;;13.90;99.90;;;;;;5131533;27;19934;-85
2023/05/10 10:30:18;;;;;;;;;;;13.90;99.90;;;;;;5142953;27;19931;-81
2023/05/10 10:32:58;;;;;;;;;;;13.90;99.90;;;;;;5170291;27;20070;-81
2023/05/10 10:35:24;;;;;;;;;;;14.00;99.90;;;;;;5128653;27;19922;-84
2023/05/10 10:37:50;;;;;;;;;;;14.00;99.90;;;;;;5152060;27;19923;-78
2023/05/10 10:40:22;;;;;;;;;;;14.20;99.90;;;;;;5132330;27;20009;-80
2023/05/10 10:42:51;;;;;;;;;;;14.20;99.90;;;;;;5097204;27;19931;-84
2023/05/10 10:45:17;;;;;;;;;;;14.30;99.90;;;;;;5153862;27;20023;-79
2023/05/10 10:47:43;;;;;;;;;;;14.40;99.90;;;;;;5152811;27;20662;-84
2023/05/10 10:50:10;;;;;;;;;;;14.40;99.90;;;;;;5113286;27;19931;-80
2023/05/10 10:52:38;;;;;;;;;;;14.40;99.90;;;;;;5114539;27;19934;-80
2023/05/10 10:55:09;;;;;;;;;;;14.40;99.90;;;;;;5147360;27;19987;-80
2023/05/10 10:57:41;;;;;;;;;;;14.40;99.90;;;;;;5126468;27;19962;-79
2023/05/10 11:00:27;;;;;;;;;;;14.50;99.90;;;;;;5149881;27;20318;-79
2023/05/10 11:03:01;;;;;;;;;;;14.60;99.90;;;;;;5144296;27;20286;-81
2023/05/10 11:05:41;;;;;;;;;;;14.70;99.90;;;;;;5144569;27;20134;-83
2023/05/10 11:08:25;;;;;;;;;;;14.70;99.90;;;;;;5134633;27;20389;-80
2023/05/10 11:10:51;;;;;;;;;;;14.80;99.90;;;;;;5144483;27;19933;-80
2023/05/10 11:13:26;;;;;;;;;;;14.80;99.90;;;;;;5147986;27;20454;-80
2023/05/10 11:15:51;;;;;;;;;;;14.70;99.90;;;;;;5164324;27;19930;-80
2023/05/10 11:18:24;;;;;;;;;;;14.60;99.90;;;;;;5147394;27;19926;-81
2023/05/10 11:20:58;;;;;;;;;;;14.60;99.90;;;;;;5140588;27;19923;-78
2023/05/10 11:23:29;;;;;;;;;;;14.60;99.90;;;;;;5135000;27;19929;-79
2023/05/10 11:25:55;;;;;;;;;;;14.50;99.90;;;;;;5146956;27;19983;-85
2023/05/10 11:28:20;;;;;;;;;;;14.50;99.90;;;;;;5129854;27;20375;-79
2023/05/10 11:30:46;;;;;;;;;;;14.60;99.90;;;;;;5164914;27;19926;-85
2023/05/10 11:33:19;;;;;;;;;;;14.70;99.90;;;;;;5167446;27;19934;-79
2023/05/10 11:35:45;;;;;;;;;;;14.70;99.90;;;;;;5141078;27;19927;-79
2023/05/10 11:38:12;;;;;;;;;;;14.90;99.90;;;;;;5156965;27;20236;-79
2023/05/10 11:40:38;;;;;;;;;;;15.00;99.90;;;;;;5149058;27;19934;-82
2023/05/10 11:43:03;;;;;;;;;;;15.10;99.90;;;;;;5131951;27;19927;-80
2023/05/10 11:45:31;;;;;;;;;;;15.20;99.90;;;;;;5151553;27;20010;-80
2023/05/10 11:47:57;;;;;;;;;;;15.20;99.90;;;;;;5143342;27;19923;-77
2023/05/10 11:50:23;;;;;;;;;;;15.00;99.90;;;;;;5163126;27;19930;-80
2023/05/10 11:52:56;;;;;;;;;;;14.70;99.90;;;;;;5152716;27;19923;-79
2023/05/10 11:55:22;;;;;;;;;;;14.50;99.90;;;;;;5147657;27;19949;-78
2023/05/10 11:57:51;;;;;;;;;;;14.20;99.90;;;;;;5155719;27;20383;-80
2023/05/10 12:00:16;;;;;;;;;;;14.10;99.90;;;;;;5136944;27;20026;-78
2023/05/10 12:02:42;;;;;;;;;;;13.90;99.90;;;;;;5161744;27;20017;-83
2023/05/10 12:05:08;;;;;;;;;;;13.70;99.90;;;;;;5145401;27;19927;-78
2023/05/10 12:07:33;;;;;;;;;;;13.60;99.90;;;;;;5172808;27;19924;-77
2023/05/10 12:10:09;;;;;;;;;;;13.50;99.90;;;;;;5165964;27;20419;-78
2023/05/10 12:12:35;;;;;;;;;;;13.60;99.90;;;;;;5137803;27;19931;-77
2023/05/10 12:15:03;;;;;;;;;;;13.50;99.90;;;;;;5165534;27;20009;-83
2023/05/10 12:17:28;;;;;;;;;;;13.60;99.90;;;;;;5152783;27;19995;-78
2023/05/10 12:19:58;;;;;;;;;;;13.60;99.90;;;;;;5159091;27;19974;-77
2023/05/10 12:22:24;;;;;;;;;;;13.70;99.90;;;;;;5162450;27;20731;-78
2023/05/10 12:24:50;;;;;;;;;;;13.80;99.90;;;;;;5142935;27;19923;-78
2023/05/10 12:27:15;;;;;;;;;;;13.90;99.90;;;;;;5136442;27;19926;-79
2023/05/10 12:29:44;;;;;;;;;;;13.90;99.90;;;;;;5167048;27;19953;-79
2023/05/10 12:32:09;;;;;;;;;;;14.00;99.90;;;;;;5163649;27;20042;-77
2023/05/10 12:34:38;;;;;;;;;;;14.10;99.90;;;;;;5169743;27;20055;-77
2023/05/10 12:37:04;;;;;;;;;;;14.20;99.90;;;;;;5162916;27;19923;-84
2023/05/10 12:39:40;;;;;;;;;;;14.20;99.90;;;;;;5121767;27;19922;-77
2023/05/10 12:42:06;;;;;;;;;;;14.30;99.90;;;;;;5149778;27;20174;-84
2023/05/10 12:44:31;;;;;;;;;;;14.40;99.90;;;;;;5151388;27;20460;-78
2023/05/10 12:46:57;;;;;;;;;;;14.70;99.90;;;;;;5153059;27;19975;-78
2023/05/10 12:49:22;;;;;;;;;;;14.80;99.90;;;;;;5170385;27;19938;-82
2023/05/10 12:51:48;;;;;;;;;;;14.80;99.90;;;;;;5166477;27;19930;-80
2023/05/10 12:54:13;;;;;;;;;;;14.90;99.90;;;;;;5160971;27;20300;-79
2023/05/10 12:56:40;;;;;;;;;;;14.90;99.90;;;;;;5146815;27;19931;-79
2023/05/10 12:59:06;;;;;;;;;;;15.00;99.90;;;;;;5142786;27;19927;-79
2023/05/10 13:01:31;;;;;;;;;;;15.10;99.90;;;;;;5127547;27;19948;-79
2023/05/10 13:03:57;;;;;;;;;;;15.20;99.90;;;;;;5146255;27;19934;-79
2023/05/10 13:06:23;;;;;;;;;;;15.30;99.90;;;;;;5146626;27;19969;-79
2023/05/10 13:08:48;;;;;;;;;;;15.30;99.90;;;;;;5163037;27;19922;-76
2023/05/10 13:11:16;;;;;;;;;;;15.30;99.90;;;;;;5136640;27;19927;-76
2023/05/10 13:13:42;;;;;;;;;;;15.20;99.90;;;;;;5160899;27;19945;-79
2023/05/10 13:16:07;;;;;;;;;;;15.00;99.90;;;;;;5139151;27;19995;-81
2023/05/10 13:18:33;;;;;;;;;;;14.90;99.90;;;;;;5117562;27;19933;-81
2023/05/10 13:20:59;;;;;;;;;;;14.60;99.90;;;;;;5157599;27;19923;-79
2023/05/10 13:23:24;;;;;;;;;;;14.50;99.90;;;;;;5140055;27;19923;-81
2023/05/10 13:25:50;;;;;;;;;;;14.30;99.90;;;;;;5147247;27;19931;-80
2023/05/10 13:28:15;;;;;;;;;;;14.10;99.90;;;;;;5148575;27;19931;-80
2023/05/10 13:30:41;;;;;;;;;;;14.00;99.90;;;;;;5153549;27;19927;-79
2023/05/10 13:33:07;;;;;;;;;;;14.00;99.90;;;;;;5147020;27;20002;-79
2023/05/10 13:35:32;;;;;;;;;;;14.00;99.90;;;;;;5110813;27;19937;-81
2023/05/10 13:37:58;;;;;;;;;;;14.00;99.90;;;;;;5172292;27;20009;-81
2023/05/10 13:40:31;;;;;;;;;;;14.10;99.90;;;;;;5150171;27;19923;-80
2023/05/10 13:42:57;;;;;;;;;;;14.10;99.90;;;;;;5112622;27;19923;-77
2023/05/10 13:45:22;;;;;;;;;;;14.10;99.90;;;;;;5130548;27;19991;-81
2023/05/10 13:47:48;;;;;;;;;;;14.10;99.90;;;;;;5134778;27;19923;-80
2023/05/10 13:50:13;;;;;;;;;;;14.20;99.90;;;;;;5133974;27;19936;-84
2023/05/10 13:52:39;;;;;;;;;;;14.40;99.90;;;;;;5138136;27;20350;-79
2023/05/10 13:55:04;;;;;;;;;;;14.50;99.90;;;;;;5152763;27;19929;-79
2023/05/10 13:57:30;;;;;;;;;;;14.60;99.90;;;;;;5142756;27;20621;-79
2023/05/10 13:59:57;;;;;;;;;;;14.70;99.90;;;;;;5168325;27;19934;-82
2023/05/10 14:02:22;;;;;;;;;;;14.90;99.90;;;;;;5159714;27;19957;-80
2023/05/10 14:04:48;;;;;;;;;;;15.10;99.90;;;;;;5155736;27;20379;-78
2023/05/10 14:07:13;;;;;;;;;;;15.30;99.90;;;;;;5149823;27;19923;-78
2023/05/10 14:09:39;;;;;;;;;;;15.60;99.90;;;;;;5148327;27;20021;-79
2023/05/10 14:12:05;;;;;;;;;;;15.80;99.90;;;;;;5163747;27;19989;-78
2023/05/10 14:14:30;;;;;;;;;;;16.00;99.90;;;;;;5143850;27;19930;-78